Terminal Aerodrome Forecast
Issued by NWS Twin Cities, MN

Home | Current Version | Previous Version | Graphics & Text | Print | Product List | Glossary On
Versions: 1 2 3 4 5 6 7 8 9 10 11 12 13 14 15 16 17 18 19 20 21 22 23 24 25 26 27 28
853
FTUS43 KMPX 300524
TAFMSP
TAF
KMSP 300524Z 3006/0112 17008KT P6SM -RA BKN008 OVC012
     FM301000 26004KT 2SM -RASN BR OVC005
     FM301400 34005KT 3SM -RA BR OVC007
     FM302000 33007KT 5SM -RA BR OVC010
     FM010500 30007KT 6SM BR OVC015=

USA.gov is the U.S. government's official web portal to all federal, state and local government web resources and services.